createdAt,value
2022-09-01T00:01:50.960Z,6.38
2022-09-01T00:04:21.250Z,5.43
2022-09-01T00:06:49.639Z,6.05
2022-09-01T00:09:19.901Z,6.03
2022-09-01T00:11:52.567Z,6.00
2022-09-01T00:17:00.020Z,5.65
2022-09-01T00:19:29.604Z,6.15
2022-09-01T00:21:58.104Z,5.60
2022-09-01T00:24:26.694Z,5.63
2022-09-01T00:26:56.353Z,5.70
2022-09-01T00:29:25.699Z,5.80
2022-09-01T00:31:54.585Z,5.72
2022-09-01T00:34:23.101Z,5.28
2022-09-01T00:36:51.119Z,5.60
2022-09-01T00:39:18.938Z,5.20
2022-09-01T00:41:47.912Z,5.93
2022-09-01T00:44:23.284Z,5.47
2022-09-01T00:46:55.946Z,5.32
2022-09-01T00:49:31.681Z,5.15
2022-09-01T00:52:09.337Z,5.22
2022-09-01T00:54:41.052Z,5.22
2022-09-01T00:57:10.911Z,5.63
2022-09-01T00:59:46.924Z,5.20
2022-09-01T01:02:15.735Z,4.97
2022-09-01T01:04:46.262Z,5.32
2022-09-01T01:07:14.725Z,5.07
2022-09-01T01:09:45.886Z,5.05
2022-09-01T01:12:18.659Z,5.05
2022-09-01T01:14:50.149Z,4.75
2022-09-01T01:17:18.968Z,5.10
2022-09-01T01:20:06.698Z,4.88
2022-09-01T01:23:00.000Z,4.63
2022-09-01T01:25:31.666Z,5.00
2022-09-01T01:28:13.195Z,4.85
2022-09-01T01:30:44.200Z,4.80
2022-09-01T01:33:12.364Z,5.10
2022-09-01T01:35:41.976Z,4.63
2022-09-01T01:38:09.858Z,4.78
2022-09-01T01:40:39.753Z,4.90
2022-09-01T01:43:07.787Z,4.50
2022-09-01T01:45:36.322Z,4.88
2022-09-01T01:48:06.087Z,4.55
2022-09-01T01:50:35.561Z,4.97
2022-09-01T01:53:10.817Z,4.43
2022-09-01T01:55:41.751Z,4.40
2022-09-01T01:58:12.035Z,4.40
2022-09-01T02:00:44.476Z,4.35
2022-09-01T02:03:17.283Z,4.47
2022-09-01T02:05:46.869Z,4.70
2022-09-01T02:08:20.886Z,4.32
2022-09-01T02:10:52.637Z,4.65
2022-09-01T02:13:31.020Z,4.30
2022-09-01T02:16:02.013Z,4.20
2022-09-01T02:18:34.326Z,4.22
2022-09-01T02:21:02.163Z,4.68
2022-09-01T02:23:30.064Z,3.97
2022-09-01T02:26:18.017Z,4.13
2022-09-01T02:28:55.567Z,4.10
2022-09-01T02:31:24.334Z,4.50
2022-09-01T02:33:54.386Z,4.22
2022-09-01T02:36:25.212Z,3.95
2022-09-01T02:38:56.444Z,3.90
2022-09-01T02:41:29.408Z,4.35
2022-09-01T02:46:25.263Z,4.30
2022-09-01T02:48:53.474Z,4.10
2022-09-01T02:51:24.100Z,3.65
2022-09-01T02:53:52.505Z,4.15
2022-09-01T02:56:25.004Z,3.45
2022-09-01T02:58:55.351Z,4.03
2022-09-01T03:01:25.452Z,4.10
2022-09-01T03:03:55.683Z,4.00
2022-09-01T03:06:25.006Z,3.90
2022-09-01T03:08:54.273Z,3.92
2022-09-01T03:11:24.325Z,3.72
2022-09-01T03:13:52.396Z,3.70
2022-09-01T03:16:23.591Z,4.45
2022-09-01T03:18:52.420Z,3.95
2022-09-01T03:21:20.678Z,3.95
2022-09-01T03:23:49.694Z,3.90
2022-09-01T03:26:21.064Z,3.92
2022-09-01T03:28:49.947Z,3.60
2022-09-01T03:31:18.982Z,3.90
2022-09-01T03:33:48.660Z,3.80
2022-09-01T03:36:20.159Z,3.80
2022-09-01T03:38:49.317Z,3.78
2022-09-01T03:41:18.785Z,3.83
2022-09-01T03:43:48.295Z,3.50
2022-09-01T03:46:21.599Z,3.95
2022-09-01T03:48:54.986Z,3.60
2022-09-01T03:51:24.594Z,3.60
2022-09-01T03:53:54.910Z,3.58
2022-09-01T03:56:26.191Z,3.60
2022-09-01T03:58:56.239Z,3.90
2022-09-01T04:01:25.174Z,4.00
2022-09-01T04:03:54.619Z,3.50
2022-09-01T04:06:24.413Z,3.90
2022-09-01T04:08:56.869Z,3.75
2022-09-01T04:11:25.252Z,3.90
2022-09-01T04:13:53.292Z,3.72
2022-09-01T04:16:41.852Z,3.58
2022-09-01T04:19:20.321Z,3.50
2022-09-01T04:21:50.436Z,3.75
2022-09-01T04:24:19.941Z,3.72
2022-09-01T04:26:49.721Z,3.58
2022-09-01T04:29:24.220Z,3.63
2022-09-01T04:31:52.276Z,3.67
2022-09-01T04:34:22.546Z,3.65
2022-09-01T04:36:56.822Z,3.58
2022-09-01T04:39:25.247Z,3.55
2022-09-01T04:41:54.132Z,3.42
2022-09-01T04:44:22.249Z,3.60
2022-09-01T04:46:50.883Z,3.63
2022-09-01T04:49:26.363Z,3.80
2022-09-01T04:51:55.546Z,3.70
2022-09-01T04:54:24.196Z,3.58
2022-09-01T04:56:54.003Z,3.67
2022-09-01T04:59:24.781Z,3.55
2022-09-01T05:01:55.676Z,3.88
2022-09-01T05:04:28.225Z,3.53
2022-09-01T05:06:59.678Z,3.72
2022-09-01T05:09:28.905Z,3.45
2022-09-01T05:11:57.705Z,3.40
2022-09-01T05:14:26.102Z,3.60
2022-09-01T05:16:58.879Z,3.58
2022-09-01T05:19:30.944Z,3.10
2022-09-01T05:22:00.047Z,3.40
2022-09-01T05:24:30.465Z,3.72
2022-09-01T05:26:59.024Z,3.40
2022-09-01T05:29:27.804Z,4.18
2022-09-01T05:31:56.900Z,3.20
2022-09-01T05:34:27.457Z,3.10
2022-09-01T05:36:59.419Z,3.55
2022-09-01T05:39:28.639Z,3.70
2022-09-01T05:41:57.241Z,3.58
2022-09-01T05:44:25.113Z,3.55
2022-09-01T05:46:53.618Z,3.30
2022-09-01T05:49:21.547Z,3.72
2022-09-01T05:51:52.207Z,4.07
2022-09-01T05:54:25.502Z,3.70
2022-09-01T05:56:53.676Z,3.80
2022-09-01T05:59:24.796Z,3.78
2022-09-01T06:01:54.192Z,3.65
2022-09-01T06:04:22.825Z,3.60
2022-09-01T06:07:08.478Z,3.50
2022-09-01T06:09:40.438Z,3.40
2022-09-01T06:12:09.308Z,3.60
2022-09-01T06:14:37.071Z,4.22
2022-09-01T06:17:04.884Z,3.80
2022-09-01T06:19:37.211Z,3.90
2022-09-01T06:24:33.179Z,3.67
2022-09-01T06:27:02.861Z,3.80
2022-09-01T06:29:32.150Z,3.83
2022-09-01T06:32:02.301Z,3.80
2022-09-01T06:34:30.290Z,3.90
2022-09-01T06:36:58.072Z,4.30
2022-09-01T06:39:26.570Z,4.05
2022-09-01T06:41:54.788Z,3.38
2022-09-01T06:44:24.985Z,4.07
2022-09-01T06:46:54.049Z,3.38
2022-09-01T06:49:32.548Z,4.00
2022-09-01T06:52:00.904Z,3.80
2022-09-01T06:54:29.879Z,4.30
2022-09-01T06:56:59.497Z,3.72
2022-09-01T06:59:34.719Z,3.38
2022-09-01T07:04:51.946Z,4.28
2022-09-01T07:10:23.531Z,4.00
2022-09-01T07:13:07.852Z,4.15
2022-09-01T07:18:29.394Z,4.47
2022-09-01T07:23:49.171Z,4.00
2022-09-01T07:26:33.897Z,4.13
2022-09-01T07:29:04.336Z,4.60
2022-09-01T07:32:48.090Z,4.28
2022-09-01T07:34:46.137Z,4.30
2022-09-01T07:37:17.325Z,4.60
2022-09-01T07:42:57.818Z,3.70
2022-09-01T07:45:31.200Z,3.92
2022-09-01T07:48:03.528Z,4.18
2022-09-01T07:53:22.572Z,3.97
2022-09-01T07:55:51.995Z,4.00
2022-09-01T07:58:22.002Z,4.30
2022-09-01T08:00:50.286Z,4.10
2022-09-01T08:03:21.933Z,4.22
2022-09-01T08:05:53.788Z,4.50
2022-09-01T08:08:26.242Z,4.22
2022-09-01T08:11:04.420Z,4.03
2022-09-01T08:13:37.283Z,4.30
2022-09-01T08:16:08.424Z,4.07
2022-09-01T08:18:53.336Z,4.15
2022-09-01T08:21:23.529Z,4.20
2022-09-01T08:23:52.475Z,4.32
2022-09-01T08:26:22.542Z,4.30
2022-09-01T08:28:57.946Z,4.60
2022-09-01T08:31:30.767Z,4.65
2022-09-01T08:34:00.445Z,4.80
2022-09-01T08:36:28.267Z,4.80
2022-09-01T08:38:56.181Z,4.53
2022-09-01T08:41:36.418Z,4.38
2022-09-01T08:44:14.905Z,5.13
2022-09-01T08:46:44.885Z,4.60
2022-09-01T08:49:27.996Z,5.22
2022-09-01T08:52:03.288Z,4.78
2022-09-01T08:54:38.404Z,5.10
2022-09-01T08:57:10.036Z,5.50
2022-09-01T08:59:38.958Z,5.10
2022-09-01T09:02:28.112Z,5.40
2022-09-01T09:05:20.882Z,5.47
2022-09-01T09:10:43.684Z,5.93
2022-09-01T09:13:16.806Z,5.63
2022-09-01T09:15:51.614Z,5.50
2022-09-01T09:18:39.784Z,5.28
2022-09-01T09:21:17.423Z,5.75
2022-09-01T09:23:49.299Z,5.28
2022-09-01T09:26:22.234Z,5.53
2022-09-01T09:28:50.947Z,5.50
2022-09-01T09:31:30.156Z,5.85
2022-09-01T09:33:59.230Z,5.50
2022-09-01T09:36:36.094Z,5.53
2022-09-01T09:39:07.995Z,5.72
2022-09-01T09:41:36.314Z,5.30
2022-09-01T09:44:20.496Z,5.55
2022-09-01T09:46:50.576Z,5.97
2022-09-01T09:49:34.763Z,5.75
2022-09-01T09:52:17.424Z,5.47
2022-09-01T09:55:04.622Z,6.10
2022-09-01T09:57:33.324Z,5.55
2022-09-01T10:00:08.430Z,5.88
2022-09-01T10:02:38.835Z,6.15
2022-09-01T10:05:24.722Z,6.43
2022-09-01T10:07:55.125Z,6.28
2022-09-01T10:10:32.435Z,6.55
2022-09-01T10:13:01.989Z,6.43
2022-09-01T10:15:33.761Z,6.25
2022-09-01T10:18:30.223Z,6.75
2022-09-01T10:21:00.462Z,7.00
2022-09-01T10:26:06.386Z,6.60
2022-09-01T10:28:50.637Z,6.35
2022-09-01T10:31:20.264Z,6.25
2022-09-01T10:33:48.874Z,6.45
2022-09-01T10:36:17.917Z,5.97
2022-09-01T10:38:53.760Z,6.35
2022-09-01T10:41:59.604Z,6.10
2022-09-01T10:44:34.103Z,6.38
2022-09-01T10:47:06.434Z,6.18
2022-09-01T10:50:07.413Z,6.32
2022-09-01T10:53:06.272Z,5.55
2022-09-01T10:56:04.886Z,5.53
2022-09-01T11:05:18.351Z,5.20
2022-09-01T11:08:09.119Z,5.13
2022-09-01T11:10:52.502Z,5.00
2022-09-01T11:13:40.339Z,5.22
2022-09-01T11:19:32.996Z,4.75
2022-09-01T11:22:22.342Z,4.95
2022-09-01T11:25:00.367Z,5.07
2022-09-01T11:28:13.732Z,5.47
2022-09-01T11:30:52.856Z,4.68
2022-09-01T11:33:43.119Z,4.65
2022-09-01T11:36:22.117Z,5.10
2022-09-01T11:38:55.230Z,4.95
2022-09-01T11:41:31.976Z,4.78
2022-09-01T11:44:00.972Z,4.53
2022-09-01T11:46:34.607Z,4.50
2022-09-01T11:49:08.101Z,4.63
2022-09-01T11:51:46.827Z,4.60
2022-09-01T11:54:16.710Z,4.72
2022-09-01T11:56:44.540Z,4.30
2022-09-01T11:59:12.489Z,4.30
2022-09-01T12:01:41.790Z,3.97
2022-09-01T12:04:22.410Z,4.32
2022-09-01T12:06:56.594Z,3.80
2022-09-01T12:09:33.904Z,4.10
2022-09-01T12:12:01.720Z,4.25
2022-09-01T12:14:39.029Z,3.70
2022-09-01T12:17:21.631Z,3.72
2022-09-01T12:22:20.093Z,3.30
2022-09-01T12:24:49.965Z,3.50
2022-09-01T12:27:17.781Z,3.70
2022-09-01T12:29:46.083Z,3.58
2022-09-01T12:32:15.850Z,3.40
2022-09-01T12:34:46.894Z,3.25
2022-09-01T12:37:24.294Z,3.60
2022-09-01T12:39:54.520Z,3.58
2022-09-01T12:42:29.889Z,3.33
2022-09-01T12:45:13.115Z,3.17
2022-09-01T12:50:43.604Z,3.20
2022-09-01T12:53:22.343Z,3.00
2022-09-01T12:56:17.469Z,2.83
2022-09-01T12:58:52.204Z,3.10
2022-09-01T13:01:29.567Z,3.13
2022-09-01T13:04:14.738Z,3.40
2022-09-01T13:06:44.186Z,3.17
2022-09-01T13:09:12.049Z,3.10
2022-09-01T13:14:31.709Z,3.20
2022-09-01T13:16:59.542Z,3.50
2022-09-01T13:19:30.407Z,3.10
2022-09-01T13:21:59.816Z,3.17
2022-09-01T13:24:30.474Z,3.15
2022-09-01T13:29:49.354Z,2.97
2022-09-01T13:32:20.994Z,2.80
2022-09-01T13:34:51.755Z,3.30
2022-09-01T13:37:21.926Z,3.33
2022-09-01T13:39:50.258Z,3.13
2022-09-01T13:42:19.323Z,3.20
2022-09-01T13:44:48.579Z,2.90
2022-09-01T13:47:29.258Z,2.90
2022-09-01T13:50:07.226Z,2.97
2022-09-01T13:52:38.561Z,3.22
2022-09-01T13:55:08.455Z,3.25
2022-09-01T13:57:36.985Z,3.38
2022-09-01T14:00:08.255Z,3.00
2022-09-01T14:02:37.450Z,3.10
2022-09-01T14:05:06.003Z,2.88
2022-09-01T14:07:34.030Z,3.00
2022-09-01T14:10:03.279Z,3.20
2022-09-01T14:12:32.092Z,3.35
2022-09-01T14:15:17.498Z,3.33
2022-09-01T14:17:47.665Z,3.38
2022-09-01T14:20:18.264Z,3.00
2022-09-01T14:22:46.947Z,3.33
2022-09-01T14:25:18.090Z,3.10
2022-09-01T14:27:47.507Z,3.47
2022-09-01T14:30:18.356Z,3.00
2022-09-01T14:32:46.568Z,3.10
2022-09-01T14:35:15.763Z,3.10
2022-09-01T14:37:44.889Z,3.03
2022-09-01T14:40:16.912Z,3.35
2022-09-01T14:45:19.735Z,3.35
2022-09-01T14:47:48.781Z,3.25
2022-09-01T14:50:21.722Z,3.50
2022-09-01T14:52:53.233Z,3.60
2022-09-01T14:55:21.417Z,3.28
2022-09-01T14:57:50.647Z,3.58
2022-09-01T15:00:19.595Z,3.33
2022-09-01T15:02:47.744Z,3.15
2022-09-01T15:05:16.357Z,3.17
2022-09-01T15:07:44.374Z,3.38
2022-09-01T15:10:23.438Z,3.30
2022-09-01T15:12:55.911Z,3.00
2022-09-01T15:15:24.164Z,3.28
2022-09-01T15:17:52.099Z,3.08
2022-09-01T15:20:37.561Z,3.58
2022-09-01T15:23:05.883Z,2.95
2022-09-01T15:25:33.726Z,3.30
2022-09-01T15:28:03.361Z,3.00
2022-09-01T15:30:31.490Z,3.40
2022-09-01T15:32:59.585Z,3.58
2022-09-01T15:35:30.313Z,3.60
2022-09-01T15:37:58.298Z,3.25
2022-09-01T15:40:27.210Z,3.00
2022-09-01T15:42:55.826Z,2.95
2022-09-01T15:45:25.987Z,3.30
2022-09-01T15:47:54.243Z,2.97
2022-09-01T15:50:27.352Z,3.45
2022-09-01T15:52:58.606Z,3.08
2022-09-01T15:55:28.429Z,3.17
2022-09-01T15:57:56.666Z,2.97
2022-09-01T16:00:28.234Z,3.30
2022-09-01T16:03:01.593Z,2.80
2022-09-01T16:05:30.513Z,3.08
2022-09-01T16:07:58.934Z,3.22
2022-09-01T16:10:27.531Z,2.83
2022-09-01T16:12:55.350Z,3.20
2022-09-01T16:15:25.272Z,2.83
2022-09-01T16:18:07.397Z,2.83
2022-09-01T16:20:38.400Z,2.58
2022-09-01T16:23:17.113Z,2.75
2022-09-01T16:25:45.865Z,2.65
2022-09-01T16:28:23.581Z,2.80
2022-09-01T16:30:53.502Z,2.80
2022-09-01T16:33:22.762Z,2.83
2022-09-01T16:36:06.424Z,2.60
2022-09-01T16:38:42.228Z,3.00
2022-09-01T16:41:21.228Z,2.95
2022-09-01T16:43:57.513Z,3.00
2022-09-01T16:46:30.563Z,2.92
2022-09-01T16:49:18.135Z,2.70
2022-09-01T16:51:56.902Z,2.85
2022-09-01T16:54:34.524Z,2.72
2022-09-01T16:57:09.100Z,2.90
2022-09-01T16:59:51.969Z,3.15
2022-09-01T17:02:35.825Z,3.30
2022-09-01T17:05:16.816Z,3.00
2022-09-01T17:07:52.983Z,3.10
2022-09-01T17:10:33.858Z,2.97
2022-09-01T17:13:17.259Z,2.97
2022-09-01T17:15:51.765Z,2.90
2022-09-01T17:18:33.626Z,2.78
2022-09-01T17:21:10.956Z,2.90
2022-09-01T17:23:47.323Z,2.90
2022-09-01T17:26:20.604Z,3.00
2022-09-01T17:28:55.353Z,3.17
2022-09-01T17:31:47.483Z,3.25
2022-09-01T17:34:29.303Z,3.25
2022-09-01T17:37:09.641Z,2.83
2022-09-01T17:39:50.809Z,3.17
2022-09-01T17:42:30.235Z,2.72
2022-09-01T17:45:06.017Z,3.10
2022-09-01T17:47:44.687Z,2.80
2022-09-01T17:50:19.906Z,2.90
2022-09-01T17:53:03.467Z,2.80
2022-09-01T17:55:46.344Z,2.95
2022-09-01T17:58:28.585Z,3.20
2022-09-01T18:01:04.646Z,3.33
2022-09-01T18:03:47.068Z,3.22
2022-09-01T18:06:28.138Z,3.45
2022-09-01T18:08:59.249Z,3.33
2022-09-01T18:11:35.995Z,3.35
2022-09-01T18:14:09.769Z,2.70
2022-09-01T18:16:49.316Z,3.00
2022-09-01T18:19:20.624Z,3.05
2022-09-01T18:21:54.234Z,2.95
2022-09-01T18:24:30.072Z,3.08
2022-09-01T18:26:57.940Z,2.65
2022-09-01T18:29:29.651Z,2.90
2022-09-01T18:32:12.094Z,2.83
2022-09-01T18:34:55.924Z,2.92
2022-09-01T18:37:32.813Z,2.88
2022-09-01T18:40:17.273Z,2.65
2022-09-01T18:42:54.267Z,3.17
2022-09-01T18:45:32.546Z,2.97
2022-09-01T18:48:07.706Z,2.95
2022-09-01T18:50:45.655Z,3.25
2022-09-01T18:53:25.279Z,3.33
2022-09-01T18:56:01.828Z,3.35
2022-09-01T18:58:50.017Z,3.70
2022-09-01T19:01:29.822Z,3.10
2022-09-01T19:04:10.092Z,3.20
2022-09-01T19:06:47.576Z,3.13
2022-09-01T19:09:22.425Z,3.28
2022-09-01T19:12:03.797Z,3.13
2022-09-01T19:14:40.199Z,3.28
2022-09-01T19:17:24.611Z,2.90
2022-09-01T19:19:58.003Z,3.00
2022-09-01T19:22:38.261Z,2.85
2022-09-01T19:25:26.933Z,2.90
2022-09-01T19:27:59.247Z,2.97
2022-09-01T19:30:27.071Z,3.00
2022-09-01T19:32:56.595Z,3.20
2022-09-01T19:35:24.967Z,3.15
2022-09-01T19:37:52.770Z,3.05
2022-09-01T19:40:26.556Z,3.35
2022-09-01T19:43:01.232Z,2.95
2022-09-01T19:45:37.549Z,3.47
2022-09-01T19:48:15.093Z,2.97
2022-09-01T19:50:48.524Z,3.17
2022-09-01T19:53:36.801Z,3.13
2022-09-01T19:56:08.797Z,3.25
2022-09-01T19:58:47.526Z,3.00
2022-09-01T20:01:19.137Z,3.22
2022-09-01T20:03:53.600Z,2.97
2022-09-01T20:06:33.520Z,3.28
2022-09-01T20:09:08.424Z,2.80
2022-09-01T20:11:46.554Z,3.17
2022-09-01T20:14:47.160Z,3.28
2022-09-01T20:17:21.678Z,3.20
2022-09-01T20:19:56.695Z,3.35
2022-09-01T20:22:31.381Z,3.50
2022-09-01T20:25:10.705Z,3.28
2022-09-01T20:27:49.961Z,3.00
2022-09-01T20:30:21.721Z,3.38
2022-09-01T20:33:01.377Z,3.42
2022-09-01T20:35:41.811Z,3.20
2022-09-01T20:38:31.790Z,3.20
2022-09-01T20:41:05.844Z,3.70
2022-09-01T20:43:39.804Z,3.10
2022-09-01T20:46:09.043Z,3.10
2022-09-01T20:48:40.831Z,3.30
2022-09-01T20:51:15.083Z,3.15
2022-09-01T20:53:57.482Z,3.40
2022-09-01T20:56:36.359Z,3.13
2022-09-01T20:59:10.608Z,3.05
2022-09-01T21:01:47.400Z,3.13
2022-09-01T21:04:30.846Z,3.30
2022-09-01T21:07:05.878Z,3.25
2022-09-01T21:09:40.722Z,3.42
2022-09-01T21:12:10.611Z,2.92
2022-09-01T21:14:51.331Z,3.13
2022-09-01T21:17:30.531Z,3.47
2022-09-01T21:20:07.868Z,3.38
2022-09-01T21:22:35.979Z,3.20
2022-09-01T21:25:04.429Z,3.30
2022-09-01T21:27:37.365Z,3.60
2022-09-01T21:30:09.344Z,3.38
2022-09-01T21:32:39.354Z,3.50
2022-09-01T21:35:10.594Z,3.47
2022-09-01T21:37:38.455Z,3.70
2022-09-01T21:40:08.008Z,3.30
2022-09-01T21:42:39.559Z,3.58
2022-09-01T21:45:11.112Z,3.45
2022-09-01T21:47:41.010Z,3.50
2022-09-01T21:50:09.847Z,3.60
2022-09-01T21:52:37.766Z,3.80
2022-09-01T21:55:06.580Z,3.80
2022-09-01T21:57:35.452Z,3.97
2022-09-01T22:00:04.934Z,4.13
2022-09-01T22:02:33.041Z,4.03
2022-09-01T22:05:05.642Z,3.88
2022-09-01T22:10:01.062Z,3.85
2022-09-01T22:12:28.893Z,3.90
2022-09-01T22:14:56.662Z,4.10
2022-09-01T22:17:24.411Z,4.10
2022-09-01T22:19:52.957Z,3.90
2022-09-01T22:22:22.123Z,4.18
2022-09-01T22:24:49.950Z,4.30
2022-09-01T22:27:17.843Z,3.90
2022-09-01T22:29:45.911Z,4.10
2022-09-01T22:32:13.797Z,3.95
2022-09-01T22:34:41.579Z,4.22
2022-09-01T22:37:11.675Z,3.78
2022-09-01T22:39:40.867Z,4.20
2022-09-01T22:42:08.784Z,4.35
2022-09-01T22:44:36.588Z,4.00
2022-09-01T22:47:04.563Z,3.97
2022-09-01T22:49:32.878Z,4.40
2022-09-01T22:52:00.668Z,3.92
2022-09-01T22:54:28.567Z,4.03
2022-09-01T22:56:59.425Z,4.28
2022-09-01T22:59:27.457Z,4.75
2022-09-01T23:01:55.698Z,4.05
2022-09-01T23:04:24.649Z,3.80
2022-09-01T23:06:53.953Z,4.30
2022-09-01T23:09:22.427Z,4.18
2022-09-01T23:11:50.714Z,4.45
2022-09-01T23:14:19.881Z,4.60
2022-09-01T23:16:51.374Z,4.00
2022-09-01T23:19:19.751Z,3.87
2022-09-01T23:21:48.137Z,4.22
2022-09-01T23:24:19.057Z,4.30
2022-09-01T23:26:48.439Z,4.10
2022-09-01T23:29:17.269Z,4.30
2022-09-01T23:31:46.662Z,4.60
2022-09-01T23:34:16.475Z,4.32
2022-09-01T23:36:44.439Z,4.50
2022-09-01T23:39:12.431Z,4.35
2022-09-01T23:41:40.391Z,4.50
2022-09-01T23:44:10.845Z,4.18
2022-09-01T23:46:41.920Z,4.32
2022-09-01T23:49:12.651Z,4.47
2022-09-01T23:51:41.176Z,4.28
2022-09-01T23:54:09.384Z,4.47
2022-09-01T23:56:39.221Z,4.40
2022-09-01T23:59:08.303Z,3.97
